Time;durP1;ratioP1;P1;durP2;ratioP2;P2;SDS_P1;SDS_P2;PMS_P1;PMS_P2;Temp;Humidity;BMP_temperature;BMP_pressure;BME280_temperature;BME280_humidity;BME280_pressure;Samples;Min_cycle;Max_cycle;Signal;HPM_P1;HPM_P2
2022/09/04 00:03:25;;;;;;;9.73;9.23;;;18.60;99.90;;;;;;10422939;28;20209;-78
2022/09/04 00:08:39;;;;;;;9.70;9.10;;;18.60;99.90;;;;;;10411515;28;20244;-80
2022/09/04 00:13:46;;;;;;;8.60;8.10;;;18.60;99.90;;;;;;10426783;28;20248;-80
2022/09/04 00:18:55;;;;;;;9.10;8.70;;;18.50;99.90;;;;;;10429372;28;20267;-80
2022/09/04 00:24:02;;;;;;;8.90;8.50;;;18.50;99.90;;;;;;10425999;28;20344;-80
2022/09/04 00:29:11;;;;;;;9.57;8.97;;;18.50;99.90;;;;;;10407613;28;20597;-78
2022/09/04 00:34:29;;;;;;;9.00;8.60;;;18.40;99.90;;;;;;10390219;28;20240;-78
2022/09/04 00:39:39;;;;;;;9.00;8.30;;;18.40;99.90;;;;;;10399750;28;20292;-78
2022/09/04 00:44:51;;;;;;;8.97;8.47;;;18.40;99.90;;;;;;10401203;28;20202;-80
2022/09/04 00:50:11;;;;;;;9.30;8.60;;;18.30;99.90;;;;;;10394387;28;20369;-80
2022/09/04 00:55:27;;;;;;;9.23;8.80;;;18.30;99.90;;;;;;10368482;28;20586;-78
2022/09/04 01:00:29;;;;;;;8.80;8.40;;;18.30;99.90;;;;;;10414333;28;20225;-78
2022/09/04 01:05:44;;;;;;;8.93;8.53;;;18.20;99.90;;;;;;10406954;28;20205;-78
2022/09/04 01:10:53;;;;;;;9.10;8.60;;;18.20;99.90;;;;;;10457441;28;20206;-79
2022/09/04 01:16:01;;;;;;;8.73;8.30;;;18.20;99.90;;;;;;10420966;28;20240;-78
2022/09/04 01:21:18;;;;;;;9.97;9.27;;;18.20;99.90;;;;;;10417684;28;20301;-78
2022/09/04 01:26:27;;;;;;;9.30;8.60;;;18.20;99.90;;;;;;10399530;28;20586;-78
2022/09/04 01:31:37;;;;;;;10.43;9.83;;;18.20;99.90;;;;;;10399435;28;20293;-78
2022/09/04 01:36:48;;;;;;;11.10;10.43;;;18.10;99.90;;;;;;10416709;28;20281;-78
2022/09/04 01:41:59;;;;;;;11.00;10.30;;;18.10;99.90;;;;;;10417843;28;20210;-78
2022/09/04 01:47:10;;;;;;;10.40;9.77;;;18.10;99.90;;;;;;10376258;28;20206;-78
2022/09/04 01:52:36;;;;;;;11.00;10.40;;;18.10;99.90;;;;;;10369689;28;20353;-78
2022/09/04 01:57:53;;;;;;;11.10;10.30;;;18.00;99.90;;;;;;10415120;28;20194;-78
2022/09/04 02:03:02;;;;;;;9.93;9.43;;;18.00;99.90;;;;;;10415617;28;20343;-78
2022/09/04 02:08:19;;;;;;;11.40;10.60;;;18.00;99.90;;;;;;10416425;28;20205;-78
2022/09/04 02:13:32;;;;;;;10.70;10.20;;;17.90;99.90;;;;;;10448891;23;20311;-78
2022/09/04 02:18:44;;;;;;;11.40;10.60;;;17.90;99.90;;;;;;10455283;28;20610;-78
2022/09/04 02:23:55;;;;;;;10.30;9.80;;;17.90;99.90;;;;;;10415172;28;20193;-78
2022/09/04 02:29:07;;;;;;;10.07;9.57;;;18.00;99.90;;;;;;10397339;28;20281;-78
2022/09/04 02:34:16;;;;;;;10.60;10.00;;;17.90;99.90;;;;;;10414532;28;20577;-78
2022/09/04 02:39:35;;;;;;;10.50;10.00;;;18.00;99.90;;;;;;10373897;28;20294;-77
2022/09/04 02:44:51;;;;;;;10.17;9.60;;;17.90;99.90;;;;;;10372284;28;20178;-78
2022/09/04 02:49:59;;;;;;;10.60;9.97;;;17.90;99.90;;;;;;10355555;28;20241;-77
2022/09/04 02:55:14;;;;;;;9.60;9.10;;;17.90;99.90;;;;;;10372662;28;20229;-78
2022/09/04 03:00:20;;;;;;;9.60;9.20;;;17.80;99.90;;;;;;10372794;28;20214;-77
2022/09/04 03:05:25;;;;;;;10.80;10.10;;;17.80;99.90;;;;;;10390785;28;20229;-78
2022/09/04 03:10:33;;;;;;;9.20;8.80;;;17.80;99.90;;;;;;10412775;28;20294;-78
2022/09/04 03:15:41;;;;;;;9.90;9.40;;;17.80;99.90;;;;;;10412547;28;20241;-78
2022/09/04 03:20:51;;;;;;;9.83;9.20;;;17.80;99.90;;;;;;10412931;28;20709;-78
2022/09/04 03:26:17;;;;;;;9.33;8.83;;;17.80;99.90;;;;;;10412507;28;20293;-78
2022/09/04 03:31:37;;;;;;;10.30;9.40;;;17.70;99.90;;;;;;10408720;28;20245;-78
2022/09/04 03:36:50;;;;;;;8.50;8.10;;;17.80;99.90;;;;;;10394108;28;20657;-78
2022/09/04 03:42:04;;;;;;;8.40;8.00;;;17.70;99.90;;;;;;10412803;28;20238;-78
2022/09/04 03:47:14;;;;;;;9.07;8.60;;;17.70;99.90;;;;;;10369797;28;20685;-78
2022/09/04 03:52:27;;;;;;;8.70;8.10;;;17.80;99.90;;;;;;10397055;28;20213;-78
2022/09/04 03:57:43;;;;;;;9.20;8.70;;;17.70;99.90;;;;;;10412018;28;20205;-78
2022/09/04 04:03:06;;;;;;;9.10;8.60;;;17.80;99.90;;;;;;10411914;28;20684;-78
2022/09/04 04:08:56;;;;;;;8.57;8.17;;;17.70;99.90;;;;;;10411665;28;20228;-78
2022/09/04 04:14:17;;;;;;;7.90;7.50;;;17.70;99.90;;;;;;10273369;28;20234;-78
2022/09/04 04:19:33;;;;;;;8.03;7.50;;;17.70;99.90;;;;;;10404473;28;20229;-78
2022/09/04 04:24:50;;;;;;;8.00;7.43;;;17.70;99.90;;;;;;10401365;28;20193;-77
2022/09/04 04:30:03;;;;;;;9.33;8.43;;;17.70;99.90;;;;;;10361039;28;20697;-77
2022/09/04 04:35:24;;;;;;;8.03;7.53;;;17.70;99.90;;;;;;10423644;28;20957;-78
2022/09/04 04:40:40;;;;;;;6.63;6.33;;;17.70;99.90;;;;;;10402388;28;20704;-78
2022/09/04 04:45:50;;;;;;;7.13;6.73;;;17.70;99.90;;;;;;10408841;28;20186;-78
2022/09/04 04:51:05;;;;;;;7.93;7.53;;;17.70;99.90;;;;;;10427931;28;20218;-77
2022/09/04 04:56:18;;;;;;;8.10;7.60;;;17.70;99.90;;;;;;10409118;28;20218;-78
2022/09/04 05:01:42;;;;;;;6.07;5.67;;;17.60;99.90;;;;;;10429900;28;20625;-78
2022/09/04 05:06:52;;;;;;;7.40;7.00;;;17.60;99.90;;;;;;10427842;28;21012;-78
2022/09/04 05:12:01;;;;;;;7.40;6.90;;;17.60;99.90;;;;;;10410120;28;20220;-78
2022/09/04 05:17:14;;;;;;;7.80;7.20;;;17.60;99.90;;;;;;10409367;28;20237;-77
2022/09/04 05:22:22;;;;;;;7.70;7.10;;;17.70;99.90;;;;;;10428084;28;20701;-78
2022/09/04 05:27:52;;;;;;;7.97;7.40;;;17.70;99.90;;;;;;10427560;28;20217;-78
2022/09/04 05:33:02;;;;;;;7.20;6.70;;;17.70;99.90;;;;;;10410084;28;20226;-78
2022/09/04 05:38:11;;;;;;;6.77;6.37;;;17.70;99.90;;;;;;10439840;28;20289;-78
2022/09/04 05:43:27;;;;;;;7.67;7.00;;;17.70;99.90;;;;;;10429896;28;20217;-78
2022/09/04 05:48:42;;;;;;;7.20;6.80;;;17.80;99.90;;;;;;10430976;28;20242;-78
2022/09/04 05:54:18;;;;;;;6.97;6.57;;;17.70;99.90;;;;;;10428930;28;20256;-78
2022/09/04 05:59:56;;;;;;;7.13;6.53;;;17.80;99.90;;;;;;10427558;28;20225;-77
2022/09/04 06:05:21;;;;;;;6.80;6.40;;;17.80;99.90;;;;;;10399029;28;20197;-77
2022/09/04 06:10:36;;;;;;;6.97;6.53;;;17.90;99.90;;;;;;10395070;28;20643;-78
2022/09/04 06:15:49;;;;;;;6.77;6.27;;;17.90;99.90;;;;;;10414494;28;20221;-78
2022/09/04 06:21:09;;;;;;;7.33;6.93;;;17.90;99.90;;;;;;10420772;28;20218;-78
2022/09/04 06:26:28;;;;;;;7.60;7.10;;;17.90;99.90;;;;;;10399910;28;20277;-78
2022/09/04 06:32:03;;;;;;;8.30;7.70;;;18.00;99.90;;;;;;10418572;28;20221;-78
2022/09/04 06:37:15;;;;;;;7.63;7.17;;;18.00;99.90;;;;;;10421763;28;20197;-77
2022/09/04 06:42:34;;;;;;;6.50;6.10;;;18.00;99.90;;;;;;10401156;28;20213;-78
2022/09/04 06:47:53;;;;;;;7.13;6.73;;;18.10;99.90;;;;;;10419877;28;20714;-78
2022/09/04 06:53:07;;;;;;;6.97;6.47;;;18.10;99.90;;;;;;10385743;28;20206;-78
2022/09/04 06:58:26;;;;;;;6.97;6.57;;;18.20;99.90;;;;;;10422345;28;20221;-78
2022/09/04 07:03:40;;;;;;;6.60;6.20;;;18.20;99.90;;;;;;10401936;28;20249;-78
2022/09/04 07:08:59;;;;;;;7.23;6.73;;;18.30;99.90;;;;;;10396243;28;20213;-78
2022/09/04 07:14:30;;;;;;;7.87;7.30;;;18.40;99.90;;;;;;10371467;28;20224;-78
2022/09/04 07:19:54;;;;;;;7.70;7.17;;;18.50;99.90;;;;;;10410511;28;20225;-79
2022/09/04 07:25:11;;;;;;;7.13;6.70;;;18.60;99.90;;;;;;10413588;28;20194;-78
2022/09/04 07:30:16;;;;;;;8.67;8.00;;;18.60;99.90;;;;;;10413787;28;20217;-78
2022/09/04 07:35:24;;;;;;;7.83;7.37;;;18.70;99.90;;;;;;10422215;28;20217;-78
2022/09/04 07:40:32;;;;;;;8.47;7.87;;;18.80;99.90;;;;;;10434710;28;20578;-78
2022/09/04 07:45:38;;;;;;;7.90;7.20;;;18.90;99.90;;;;;;10414710;28;20226;-78
2022/09/04 07:51:02;;;;;;;7.30;6.80;;;19.00;99.90;;;;;;10415211;28;20296;-78
2022/09/04 07:56:16;;;;;;;7.43;6.93;;;19.10;99.90;;;;;;10414081;28;20213;-78
2022/09/04 08:01:52;;;;;;;7.83;7.27;;;19.30;99.90;;;;;;10414500;28;20213;-78
2022/09/04 08:06:58;;;;;;;7.10;6.70;;;19.50;99.90;;;;;;10401502;28;20205;-78
2022/09/04 08:12:26;;;;;;;6.97;6.57;;;19.70;99.90;;;;;;10423798;28;20221;-78
2022/09/04 08:17:50;;;;;;;7.90;7.30;;;19.80;99.90;;;;;;10414639;28;20205;-78
2022/09/04 08:22:58;;;;;;;7.10;6.70;;;20.00;99.90;;;;;;10402018;28;20297;-78
2022/09/04 08:28:23;;;;;;;7.13;6.73;;;20.10;99.90;;;;;;10402315;28;20198;-78
2022/09/04 08:33:55;;;;;;;5.50;5.17;;;20.20;99.90;;;;;;10419292;28;20214;-78
2022/09/04 08:39:07;;;;;;;6.20;5.83;;;20.30;99.90;;;;;;10343780;28;20320;-78
2022/09/04 08:44:47;;;;;;;4.67;4.43;;;20.40;99.90;;;;;;10361380;28;20191;-78
2022/09/04 08:50:22;;;;;;;5.50;5.07;;;20.50;99.90;;;;;;10400710;28;20232;-78
2022/09/04 08:55:46;;;;;;;5.00;4.70;;;20.60;99.90;;;;;;10418215;28;20217;-78
2022/09/04 09:01:16;;;;;;;8.27;7.67;;;20.70;99.90;;;;;;10417819;28;20210;-78
2022/09/04 09:07:01;;;;;;;5.03;4.73;;;20.90;99.90;;;;;;10400355;28;20247;-78
2022/09/04 09:12:43;;;;;;;5.20;4.80;;;20.90;99.90;;;;;;10332152;28;20615;-78
2022/09/04 09:18:02;;;;;;;4.80;4.40;;;20.90;99.90;;;;;;10394355;28;20202;-78
2022/09/04 09:23:37;;;;;;;5.33;5.03;;;21.00;99.90;;;;;;10417768;28;20214;-79
2022/09/04 09:29:24;;;;;;;4.57;4.37;;;21.30;99.90;;;;;;10417140;28;20301;-78
2022/09/04 09:35:08;;;;;;;4.00;3.70;;;21.50;99.90;;;;;;10418581;28;20228;-79
2022/09/04 09:40:35;;;;;;;4.77;4.47;;;21.70;99.90;;;;;;10358581;28;20211;-79
2022/09/04 09:46:00;;;;;;;4.60;4.30;;;22.00;99.90;;;;;;10380562;28;20182;-79
2022/09/04 09:51:24;;;;;;;4.17;3.73;;;22.40;99.90;;;;;;10397026;28;20225;-79
2022/09/04 09:57:06;;;;;;;3.23;3.03;;;22.80;99.90;;;;;;10413201;28;20217;-78
2022/09/04 10:02:28;;;;;;;3.47;3.30;;;22.90;99.90;;;;;;10395953;28;20217;-79
2022/09/04 10:08:01;;;;;;;3.70;3.50;;;23.00;99.90;;;;;;10397929;28;20201;-78
2022/09/04 10:13:33;;;;;;;3.87;3.57;;;22.90;99.90;;;;;;10414927;28;20230;-78
2022/09/04 10:19:15;;;;;;;3.60;3.40;;;22.90;99.90;;;;;;10397435;28;20190;-78
2022/09/04 10:24:52;;;;;;;3.27;3.17;;;22.80;99.90;;;;;;10414969;28;20236;-78
2022/09/04 10:30:05;;;;;;;3.20;3.00;;;23.10;99.90;;;;;;10396845;28;20689;-78
2022/09/04 10:35:24;;;;;;;3.40;3.27;;;23.20;99.90;;;;;;10396785;28;20674;-79
2022/09/04 10:40:36;;;;;;;3.70;3.50;;;23.10;99.90;;;;;;10413935;28;20210;-78
2022/09/04 10:45:46;;;;;;;3.00;2.90;;;22.90;99.90;;;;;;10414425;28;20217;-78
2022/09/04 10:51:19;;;;;;;3.90;3.70;;;22.80;99.90;;;;;;10396289;28;20216;-78
2022/09/04 10:56:27;;;;;;;3.47;3.27;;;22.60;99.90;;;;;;10340326;28;20231;-79
2022/09/04 11:02:17;;;;;;;2.97;2.80;;;22.50;99.90;;;;;;10396127;28;20220;-78
2022/09/04 11:07:50;;;;;;;3.47;3.20;;;22.60;99.90;;;;;;10361617;28;20668;-78
2022/09/04 11:13:21;;;;;;;3.70;3.40;;;22.80;99.90;;;;;;10385395;28;20234;-78
2022/09/04 11:18:58;;;;;;;3.60;3.30;;;23.00;99.90;;;;;;10379135;28;20205;-78
2022/09/04 11:24:37;;;;;;;3.23;3.00;;;23.20;99.90;;;;;;10395496;28;20198;-78
2022/09/04 11:29:53;;;;;;;3.33;3.13;;;23.30;99.90;;;;;;10410830;28;20224;-78
2022/09/04 11:35:35;;;;;;;3.10;2.90;;;23.30;99.90;;;;;;10416066;28;20644;-78
2022/09/04 11:41:10;;;;;;;3.30;3.10;;;23.20;99.90;;;;;;10451975;28;20292;-79
2022/09/04 11:46:38;;;;;;;2.97;2.87;;;23.10;99.90;;;;;;10448720;28;20201;-79
2022/09/04 11:52:01;;;;;;;3.10;2.93;;;23.10;99.90;;;;;;10450352;28;20233;-78
2022/09/04 11:57:12;;;;;;;3.33;3.13;;;23.10;99.90;;;;;;10392802;28;20217;-78
2022/09/04 12:03:02;;;;;;;3.43;3.27;;;23.00;99.90;;;;;;10410425;28;20272;-78
2022/09/04 12:08:24;;;;;;;5.33;5.03;;;22.90;99.90;;;;;;10430775;28;20212;-77
2022/09/04 12:13:52;;;;;;;3.73;3.53;;;22.90;99.90;;;;;;10414598;28;1081334;-78
2022/09/04 12:19:32;;;;;;;3.97;3.67;;;22.90;99.90;;;;;;10452717;28;20554;-79
2022/09/04 12:25:00;;;;;;;4.90;4.60;;;23.00;99.90;;;;;;10405088;28;20213;-78
2022/09/04 12:30:10;;;;;;;3.93;3.73;;;23.10;99.90;;;;;;10411279;28;20229;-78
2022/09/04 12:35:42;;;;;;;6.70;6.20;;;23.40;99.90;;;;;;10418467;28;20655;-78
2022/09/04 12:40:56;;;;;;;3.77;3.57;;;23.50;99.90;;;;;;10418131;28;20224;-78
2022/09/04 12:46:09;;;;;;;3.80;3.60;;;23.50;99.90;;;;;;10452299;28;20177;-79
2022/09/04 12:51:15;;;;;;;2.90;2.80;;;23.30;99.90;;;;;;10410528;28;20224;-78
2022/09/04 12:56:26;;;;;;;3.03;2.90;;;23.20;99.90;;;;;;10392564;28;20255;-78
2022/09/04 13:01:40;;;;;;;3.03;2.93;;;23.10;99.90;;;;;;10370020;28;20226;-79
2022/09/04 13:06:58;;;;;;;3.50;3.20;;;23.00;99.90;;;;;;10379906;28;20191;-78
2022/09/04 13:12:14;;;;;;;2.70;2.50;;;23.00;99.90;;;;;;10392868;28;20260;-78
2022/09/04 13:17:25;;;;;;;3.93;3.73;;;23.00;99.90;;;;;;10409828;28;20213;-78
2022/09/04 13:22:35;;;;;;;3.50;3.30;;;23.00;99.90;;;;;;10364635;28;20252;-78
2022/09/04 13:27:57;;;;;;;3.70;3.17;;;23.00;99.90;;;;;;10415087;28;20575;-78
2022/09/04 13:33:24;;;;;;;3.43;3.23;;;23.00;99.90;;;;;;10397667;28;20291;-78
2022/09/04 13:39:01;;;;;;;3.17;2.97;;;23.00;99.90;;;;;;10427543;28;20318;-78
2022/09/04 13:44:24;;;;;;;3.83;3.63;;;22.90;99.90;;;;;;10404031;28;20206;-79
2022/09/04 13:49:32;;;;;;;4.10;3.70;;;22.80;99.90;;;;;;10423565;28;20603;-79
2022/09/04 13:54:39;;;;;;;3.23;3.03;;;22.90;99.90;;;;;;10425643;28;20214;-78
2022/09/04 13:59:47;;;;;;;3.67;3.37;;;23.00;99.90;;;;;;10423744;28;20600;-78
2022/09/04 14:04:53;;;;;;;3.20;3.10;;;23.00;99.90;;;;;;10403462;28;20193;-78
2022/09/04 14:09:59;;;;;;;2.90;2.80;;;23.00;99.90;;;;;;10449749;22;20256;-80
2022/09/04 14:15:32;;;;;;;3.17;3.07;;;23.00;99.90;;;;;;10485717;28;20209;-79
2022/09/04 14:20:39;;;;;;;3.50;3.30;;;22.90;99.90;;;;;;10444647;28;20217;-78
2022/09/04 14:25:49;;;;;;;3.90;3.70;;;22.90;99.90;;;;;;10480212;28;20204;-78
2022/09/04 14:31:04;;;;;;;4.03;3.83;;;22.90;99.90;;;;;;10476297;28;20225;-79
2022/09/04 14:36:20;;;;;;;3.80;3.60;;;22.90;99.90;;;;;;10472158;28;20224;-78
2022/09/04 14:41:35;;;;;;;3.77;3.57;;;22.90;99.90;;;;;;10454353;28;20219;-78
2022/09/04 14:46:54;;;;;;;3.80;3.60;;;23.00;99.90;;;;;;10467009;28;20224;-78
2022/09/04 14:51:56;;;;;;;4.13;3.90;;;22.90;99.90;;;;;;10461869;28;20217;-79
2022/09/04 14:57:03;;;;;;;5.77;5.37;;;22.90;99.90;;;;;;10454054;28;20237;-79
2022/09/04 15:02:21;;;;;;;5.90;5.40;;;22.90;99.90;;;;;;10458784;28;20579;-79
2022/09/04 15:07:49;;;;;;;5.20;4.90;;;22.90;99.90;;;;;;10434347;28;20216;-79
2022/09/04 15:12:59;;;;;;;3.63;3.53;;;22.80;99.90;;;;;;10404498;28;20618;-80
2022/09/04 15:18:09;;;;;;;3.47;3.27;;;22.80;99.90;;;;;;10452782;28;20217;-79
2022/09/04 15:23:24;;;;;;;3.63;3.53;;;22.90;99.90;;;;;;10454012;28;20213;-79
2022/09/04 15:28:37;;;;;;;4.13;3.83;;;22.90;99.90;;;;;;10442817;28;20201;-82
2022/09/04 15:33:44;;;;;;;3.00;2.90;;;22.90;99.90;;;;;;10465333;28;20304;-81
2022/09/04 15:38:49;;;;;;;4.07;3.77;;;23.00;99.50;;;;;;10451576;28;20265;-81
2022/09/04 15:44:00;;;;;;;3.53;3.33;;;23.10;98.00;;;;;;10455391;28;20224;-80
2022/09/04 15:49:19;;;;;;;4.17;3.93;;;23.20;99.00;;;;;;10460356;28;20204;-81
2022/09/04 15:54:29;;;;;;;3.60;3.47;;;23.20;99.00;;;;;;10450491;28;20205;-80
2022/09/04 15:59:49;;;;;;;3.73;3.43;;;23.10;99.70;;;;;;10461282;28;20193;-81
2022/09/04 16:05:02;;;;;;;3.10;3.00;;;23.10;99.90;;;;;;10459237;28;20714;-82
2022/09/04 16:10:16;;;;;;;3.40;3.30;;;23.00;99.90;;;;;;10457388;28;20224;-81
2022/09/04 16:15:29;;;;;;;3.70;3.50;;;22.90;99.90;;;;;;10450695;28;20285;-81
2022/09/04 16:26:22;;;;;;;4.30;4.10;;;22.80;99.90;;;;;;10450671;28;20277;-80
2022/09/04 16:45:03;;;;;;;4.70;3.63;;;22.90;99.60;;;;;;10645739;22;20236;-81
2022/09/04 16:50:45;;;;;;;3.57;3.17;;;23.00;98.60;;;;;;10462355;28;20249;-80
2022/09/04 17:08:17;;;;;;;2.80;2.70;;;23.00;99.00;;;;;;10453204;28;20205;-80
2022/09/04 17:19:30;;;;;;;5.57;3.93;;;22.90;98.80;;;;;;10435687;28;20210;-80
2022/09/04 17:25:14;;;;;;;3.70;3.50;;;22.80;99.40;;;;;;10437102;28;20197;-79
2022/09/04 17:30:38;;;;;;;3.07;2.87;;;22.80;99.30;;;;;;10443220;28;20209;-81
2022/09/04 17:35:45;;;;;;;3.90;3.60;;;22.60;99.80;;;;;;10456122;28;20588;-80
2022/09/04 17:41:10;;;;;;;4.23;4.00;;;22.50;99.90;;;;;;10458554;28;20225;-80
2022/09/04 17:47:40;;;;;;;3.60;3.30;;;22.40;99.90;;;;;;10459748;28;20244;-80
2022/09/04 17:52:58;;;;;;;3.70;3.50;;;22.20;99.90;;;;;;10431339;28;20252;-81
2022/09/04 17:58:09;;;;;;;5.37;4.03;;;22.10;99.90;;;;;;10446117;28;20278;-82
2022/09/04 18:03:22;;;;;;;3.93;3.73;;;22.00;99.90;;;;;;10424905;28;20225;-81
2022/09/04 18:08:32;;;;;;;3.73;3.60;;;21.90;99.90;;;;;;10425085;28;20231;-81
2022/09/04 18:13:40;;;;;;;4.30;4.00;;;21.80;99.90;;;;;;10461166;28;20221;-81
2022/09/04 18:18:46;;;;;;;3.70;3.50;;;21.70;99.90;;;;;;10463807;28;20708;-81
2022/09/04 18:23:55;;;;;;;3.60;3.40;;;21.60;99.90;;;;;;10437442;28;20716;-80
2022/09/04 18:29:05;;;;;;;4.07;3.77;;;21.50;99.90;;;;;;10425741;28;20205;-81
2022/09/04 18:34:18;;;;;;;3.83;3.43;;;21.50;99.90;;;;;;10434335;28;20253;-81
2022/09/04 18:39:31;;;;;;;3.93;3.70;;;21.50;99.90;;;;;;10443527;28;20205;-81
2022/09/04 18:44:42;;;;;;;3.93;3.73;;;21.40;99.90;;;;;;10432130;28;20232;-80
2022/09/04 18:49:52;;;;;;;4.27;4.00;;;21.30;99.90;;;;;;10435152;28;20222;-79
2022/09/04 18:55:00;;;;;;;3.87;3.57;;;21.20;99.90;;;;;;10424811;28;20201;-79
2022/09/04 19:00:09;;;;;;;4.30;4.00;;;21.10;99.90;;;;;;10433183;28;20229;-81
2022/09/04 19:05:13;;;;;;;3.67;3.47;;;21.10;99.90;;;;;;10412363;28;20258;-80
2022/09/04 19:10:25;;;;;;;4.03;3.80;;;21.00;99.90;;;;;;10449529;28;20271;-81
2022/09/04 19:15:50;;;;;;;3.70;3.50;;;21.00;99.90;;;;;;10423469;28;20304;-81
2022/09/04 19:21:13;;;;;;;6.27;3.60;;;20.90;99.90;;;;;;10442115;28;20225;-81
2022/09/04 19:26:21;;;;;;;4.00;3.73;;;20.90;99.90;;;;;;10439735;28;20204;-81
2022/09/04 19:31:32;;;;;;;6.37;3.70;;;20.90;99.90;;;;;;10437356;28;20233;-80
2022/09/04 19:36:42;;;;;;;3.13;2.93;;;20.90;99.90;;;;;;10428037;28;20263;-79
2022/09/04 19:41:49;;;;;;;4.00;3.70;;;20.80;99.90;;;;;;10443942;28;20226;-80
2022/09/04 19:47:04;;;;;;;4.57;4.20;;;20.70;99.90;;;;;;10430665;28;20197;-80
2022/09/04 19:52:12;;;;;;;4.17;3.90;;;20.60;99.90;;;;;;10450084;28;20217;-79
2022/09/04 19:57:23;;;;;;;9.33;3.80;;;20.60;99.90;;;;;;10444410;28;20252;-79
2022/09/04 20:02:37;;;;;;;5.00;4.60;;;20.50;99.90;;;;;;10410442;28;20603;-80
2022/09/04 20:07:45;;;;;;;4.20;4.00;;;20.50;99.90;;;;;;10450200;28;20190;-79
2022/09/04 20:12:54;;;;;;;6.13;4.30;;;20.50;99.90;;;;;;10486479;22;20307;-80
2022/09/04 20:18:10;;;;;;;4.47;4.17;;;20.40;99.90;;;;;;10475302;28;20217;-80
2022/09/04 20:23:19;;;;;;;3.67;3.47;;;20.40;99.90;;;;;;10455600;28;20217;-80
2022/09/04 20:28:29;;;;;;;4.90;4.43;;;20.30;99.90;;;;;;10470516;28;20235;-81
2022/09/04 20:33:36;;;;;;;3.90;3.60;;;20.30;99.90;;;;;;10468714;28;20467;-81
2022/09/04 20:38:48;;;;;;;4.60;4.30;;;20.30;99.90;;;;;;10470500;28;20225;-80
2022/09/04 20:43:58;;;;;;;5.47;4.17;;;20.30;99.90;;;;;;10476218;28;20709;-78
2022/09/04 20:49:10;;;;;;;3.60;3.40;;;20.20;99.90;;;;;;10469707;28;20197;-80
2022/09/04 20:54:31;;;;;;;4.70;4.30;;;20.20;99.90;;;;;;10456551;28;20224;-80
2022/09/04 20:59:45;;;;;;;3.70;3.50;;;20.20;99.90;;;;;;10452274;28;20284;-79
2022/09/04 21:04:56;;;;;;;3.70;3.40;;;20.10;99.90;;;;;;10467057;28;20225;-79
2022/09/04 21:10:09;;;;;;;5.00;4.27;;;20.10;99.90;;;;;;10466539;28;20716;-79
2022/09/04 21:15:22;;;;;;;6.20;4.47;;;20.10;99.90;;;;;;10467848;28;20217;-80
2022/09/04 21:20:51;;;;;;;4.53;4.27;;;20.00;99.90;;;;;;10468226;28;20272;-80
2022/09/04 21:26:02;;;;;;;4.20;3.90;;;19.90;99.90;;;;;;10467936;28;20220;-80
2022/09/04 21:31:19;;;;;;;5.07;4.70;;;19.90;99.90;;;;;;10477708;28;20221;-81
2022/09/04 21:36:29;;;;;;;4.67;4.27;;;19.80;99.90;;;;;;10468405;28;20216;-80
2022/09/04 21:41:49;;;;;;;5.00;4.60;;;19.80;99.90;;;;;;10450752;28;20221;-80
2022/09/04 21:47:04;;;;;;;5.03;4.63;;;19.80;99.90;;;;;;10478087;28;20204;-81
2022/09/04 21:52:51;;;;;;;4.27;4.03;;;19.80;99.90;;;;;;10467090;28;20273;-80
2022/09/04 21:58:20;;;;;;;4.67;4.27;;;19.80;99.90;;;;;;10467414;28;20213;-81
2022/09/04 22:03:33;;;;;;;4.43;4.13;;;19.80;99.90;;;;;;10464597;28;20220;-81
2022/09/04 22:08:46;;;;;;;3.87;3.60;;;19.70;99.90;;;;;;10465944;28;20554;-80
2022/09/04 22:14:03;;;;;;;4.50;4.20;;;19.70;99.90;;;;;;10462365;28;20282;-81
2022/09/04 22:19:23;;;;;;;4.37;4.10;;;19.70;99.90;;;;;;10470146;28;20313;-81
2022/09/04 22:24:45;;;;;;;4.67;4.37;;;19.60;99.90;;;;;;10467237;28;20217;-81
2022/09/04 22:29:59;;;;;;;3.93;3.73;;;19.60;99.90;;;;;;10477133;28;20204;-81
2022/09/04 22:35:36;;;;;;;3.80;3.60;;;19.60;99.90;;;;;;10465104;28;20217;-81
2022/09/04 22:40:54;;;;;;;3.93;3.63;;;19.60;99.90;;;;;;10434023;28;20232;-80
2022/09/04 22:46:19;;;;;;;4.57;4.37;;;19.50;99.90;;;;;;10462974;28;20201;-81
2022/09/04 22:51:36;;;;;;;4.80;4.50;;;19.50;99.90;;;;;;10466487;28;20213;-81
2022/09/04 22:56:52;;;;;;;3.90;3.70;;;19.50;99.90;;;;;;10466832;28;20238;-81
2022/09/04 23:02:29;;;;;;;3.70;3.60;;;19.40;99.90;;;;;;10455429;28;20228;-81
2022/09/04 23:07:50;;;;;;;4.33;4.13;;;19.40;99.90;;;;;;10463357;28;20199;-79
2022/09/04 23:13:25;;;;;;;5.17;4.87;;;19.30;99.90;;;;;;10464939;28;20224;-81
2022/09/04 23:18:47;;;;;;;4.70;4.37;;;19.30;99.90;;;;;;10460937;28;20308;-81
2022/09/04 23:24:18;;;;;;;4.03;3.83;;;19.20;99.90;;;;;;10465509;28;20224;-79
2022/09/04 23:29:45;;;;;;;4.27;4.00;;;19.20;99.90;;;;;;10475431;28;20193;-81
2022/09/04 23:35:08;;;;;;;4.57;4.10;;;19.20;99.90;;;;;;10464814;28;20205;-79
2022/09/04 23:40:34;;;;;;;4.27;4.07;;;19.10;99.90;;;;;;10457866;28;20217;-80
2022/09/04 23:46:01;;;;;;;4.27;3.97;;;19.10;99.90;;;;;;10449095;28;20257;-80
2022/09/04 23:51:16;;;;;;;4.00;3.80;;;19.00;99.90;;;;;;10451561;28;20256;-80
2022/09/04 23:56:25;;;;;;;4.50;4.10;;;19.00;99.90;;;;;;10455429;28;20227;-79
